Cinnaminson Township, New Jersey
Current Conditions -  °F | °C
As of 6:54 PM on Friday 24 Oct 2014 (Local Time) from KPNE Reporting Station
Clear Clear  
Wind Chill: 65°   Ceiling: Unl
Heat Index: 65°   Visibility: 10mi
Dew Point: 42°   Wind: 5mph
Humidity: 43%   Direction: 320°NW
Pressure: 29.84"   Gusts: NA
Location:  40.0002°N, 74.9938°W
Report Text: KPNE 242254Z AUTO 32004KT 10SM CLR 18/06 A2984 RMK AO2 SLP105 T01830056 TSNO
Loading
Personal Weather Stations






























Interactive Weather Map
Tropical Storm Tracking
New forecast layout! Learn more

10-Day Weather Forecast

Advertisements
Track Severe Weather on mobile